Time;durP1;ratioP1;P1;durP2;ratioP2;P2;SDS_P1;SDS_P2;PMS_P1;PMS_P2;Temp;Humidity;BMP_temperature;BMP_pressure;BME280_temperature;BME280_humidity;BME280_pressure;Samples;Min_cycle;Max_cycle;Signal;HPM_P1;HPM_P2
2022/07/05 00:00:13;;;;;;;;;;;14.30;99.90;;;;;;5071711;28;19916;-75
2022/07/05 00:02:38;;;;;;;;;;;14.10;99.90;;;;;;5071023;28;19913;-75
2022/07/05 00:05:04;;;;;;;;;;;14.10;99.90;;;;;;5071184;28;19955;-75
2022/07/05 00:07:29;;;;;;;;;;;14.00;99.90;;;;;;5071533;28;19916;-75
2022/07/05 00:09:57;;;;;;;;;;;13.90;99.90;;;;;;5071344;28;19915;-75
2022/07/05 00:12:24;;;;;;;;;;;13.80;99.90;;;;;;5071386;28;19982;-75
2022/07/05 00:14:50;;;;;;;;;;;13.90;99.90;;;;;;5070799;28;19917;-75
2022/07/05 00:17:15;;;;;;;;;;;13.90;99.90;;;;;;5066881;28;20365;-75
2022/07/05 00:19:41;;;;;;;;;;;13.70;99.90;;;;;;5071346;28;19920;-75
2022/07/05 00:22:07;;;;;;;;;;;13.70;99.90;;;;;;5071273;28;20327;-75
2022/07/05 00:24:32;;;;;;;;;;;13.60;99.90;;;;;;5071073;28;19917;-75
2022/07/05 00:26:58;;;;;;;;;;;13.40;99.90;;;;;;5071538;28;20279;-75
2022/07/05 00:29:23;;;;;;;;;;;13.60;99.90;;;;;;5064915;28;19908;-75
2022/07/05 00:31:49;;;;;;;;;;;13.80;99.90;;;;;;5071247;28;19919;-75
2022/07/05 00:34:15;;;;;;;;;;;13.90;99.90;;;;;;5070849;28;19916;-75
2022/07/05 00:36:40;;;;;;;;;;;13.70;99.90;;;;;;5071079;28;20028;-75
2022/07/05 00:39:06;;;;;;;;;;;13.60;99.90;;;;;;5071356;28;19908;-75
2022/07/05 00:41:32;;;;;;;;;;;13.60;99.90;;;;;;5071059;28;19909;-75
2022/07/05 00:43:59;;;;;;;;;;;13.60;99.90;;;;;;5069391;28;19999;-75
2022/07/05 00:46:25;;;;;;;;;;;13.40;99.90;;;;;;5064604;28;19916;-75
2022/07/05 00:48:51;;;;;;;;;;;13.30;99.90;;;;;;5070866;28;19965;-75
2022/07/05 00:51:16;;;;;;;;;;;13.30;99.90;;;;;;5071014;28;20327;-75
2022/07/05 00:53:43;;;;;;;;;;;13.30;99.90;;;;;;5067391;28;19912;-75
2022/07/05 00:56:09;;;;;;;;;;;13.20;99.90;;;;;;5072960;28;19912;-75
2022/07/05 00:58:35;;;;;;;;;;;13.10;99.90;;;;;;5071174;28;19911;-75
2022/07/05 01:01:04;;;;;;;;;;;12.90;99.90;;;;;;5071230;28;19916;-75
2022/07/05 01:03:30;;;;;;;;;;;12.80;99.90;;;;;;5068357;28;19913;-75
2022/07/05 01:05:56;;;;;;;;;;;12.80;99.90;;;;;;5071053;28;19915;-75
2022/07/05 01:08:23;;;;;;;;;;;12.80;99.90;;;;;;5071206;28;19908;-75
2022/07/05 01:10:49;;;;;;;;;;;12.70;99.90;;;;;;5071196;28;20011;-75
2022/07/05 01:13:15;;;;;;;;;;;12.60;99.90;;;;;;5071705;28;20003;-75
2022/07/05 01:15:41;;;;;;;;;;;12.60;99.90;;;;;;5073264;28;19909;-75
2022/07/05 01:18:07;;;;;;;;;;;12.60;99.90;;;;;;5074595;28;19951;-75
2022/07/05 01:20:33;;;;;;;;;;;12.60;99.90;;;;;;5072254;28;19974;-75
2022/07/05 01:23:02;;;;;;;;;;;12.60;99.90;;;;;;5073743;28;20803;-75
2022/07/05 01:25:28;;;;;;;;;;;12.50;99.90;;;;;;5074257;28;19999;-75
2022/07/05 01:27:55;;;;;;;;;;;12.50;99.90;;;;;;5074544;28;19913;-75
2022/07/05 01:30:21;;;;;;;;;;;12.50;99.90;;;;;;5074430;28;19912;-75
2022/07/05 01:32:46;;;;;;;;;;;12.50;99.90;;;;;;5073822;28;19938;-75
2022/07/05 01:35:13;;;;;;;;;;;12.50;99.90;;;;;;5073767;28;19916;-75
2022/07/05 01:37:38;;;;;;;;;;;12.60;99.90;;;;;;5074346;28;19916;-75
2022/07/05 01:40:04;;;;;;;;;;;12.60;99.90;;;;;;5074354;28;20277;-75
2022/07/05 01:42:30;;;;;;;;;;;12.60;99.90;;;;;;5073931;28;19916;-75
2022/07/05 01:44:55;;;;;;;;;;;12.40;99.90;;;;;;5073514;28;19908;-75
2022/07/05 01:47:21;;;;;;;;;;;12.40;99.90;;;;;;5074410;28;19989;-75
2022/07/05 01:49:48;;;;;;;;;;;12.40;99.90;;;;;;5076198;28;19916;-75
2022/07/05 01:52:13;;;;;;;;;;;12.30;99.90;;;;;;5072974;28;19915;-75
2022/07/05 01:54:39;;;;;;;;;;;12.30;99.90;;;;;;5073347;28;20352;-76
2022/07/05 01:57:05;;;;;;;;;;;12.20;99.90;;;;;;5073854;28;20337;-75
2022/07/05 01:59:32;;;;;;;;;;;12.30;99.90;;;;;;5073929;28;20365;-76
2022/07/05 02:01:57;;;;;;;;;;;12.40;99.90;;;;;;5073290;28;19908;-75
2022/07/05 02:04:23;;;;;;;;;;;12.50;99.90;;;;;;5073387;28;20384;-75
2022/07/05 02:06:48;;;;;;;;;;;12.50;99.90;;;;;;5073792;28;19912;-75
2022/07/05 02:09:14;;;;;;;;;;;12.60;99.90;;;;;;5073835;28;19908;-75
2022/07/05 02:11:40;;;;;;;;;;;12.60;99.90;;;;;;5073415;28;19920;-75
2022/07/05 02:14:05;;;;;;;;;;;12.60;99.90;;;;;;5073209;28;19920;-75
2022/07/05 02:16:31;;;;;;;;;;;12.60;99.90;;;;;;5073428;28;19908;-76
2022/07/05 02:18:57;;;;;;;;;;;12.60;99.90;;;;;;5072455;28;19908;-75
2022/07/05 02:21:22;;;;;;;;;;;12.60;99.90;;;;;;5073326;28;19912;-75
2022/07/05 02:23:48;;;;;;;;;;;12.50;99.90;;;;;;5070581;28;20269;-75
2022/07/05 02:26:14;;;;;;;;;;;12.40;99.90;;;;;;5073317;28;19961;-75
2022/07/05 02:28:39;;;;;;;;;;;12.30;99.90;;;;;;5073360;28;19913;-75
2022/07/05 02:31:05;;;;;;;;;;;12.20;99.90;;;;;;5073397;28;19915;-76
2022/07/05 02:33:30;;;;;;;;;;;12.10;99.90;;;;;;5072329;28;19948;-75
2022/07/05 02:35:56;;;;;;;;;;;12.00;99.90;;;;;;5073289;28;19916;-75
2022/07/05 02:38:21;;;;;;;;;;;12.00;99.90;;;;;;5073331;28;19916;-75
2022/07/05 02:40:47;;;;;;;;;;;11.90;99.90;;;;;;5072908;28;20345;-75
2022/07/05 02:43:12;;;;;;;;;;;11.80;99.90;;;;;;5072340;28;19922;-75
2022/07/05 02:45:38;;;;;;;;;;;11.70;99.90;;;;;;5072769;28;20001;-75
2022/07/05 02:48:03;;;;;;;;;;;11.60;99.90;;;;;;5072724;28;19908;-75
2022/07/05 02:50:29;;;;;;;;;;;11.50;99.90;;;;;;5073133;28;20369;-75
2022/07/05 02:52:54;;;;;;;;;;;11.50;99.90;;;;;;5072486;28;19946;-75
2022/07/05 02:55:20;;;;;;;;;;;11.60;99.90;;;;;;5080413;28;20383;-75
2022/07/05 02:57:45;;;;;;;;;;;11.50;99.90;;;;;;5072785;28;19954;-75
2022/07/05 03:00:11;;;;;;;;;;;11.50;99.90;;;;;;5072905;28;19908;-75
2022/07/05 03:02:36;;;;;;;;;;;11.50;99.90;;;;;;5072304;28;19908;-75
2022/07/05 03:05:02;;;;;;;;;;;11.40;99.90;;;;;;5072345;28;19954;-75
2022/07/05 03:07:28;;;;;;;;;;;11.30;99.90;;;;;;5072786;28;19912;-75
2022/07/05 03:09:53;;;;;;;;;;;11.40;99.90;;;;;;5072776;28;19915;-75
2022/07/05 03:12:19;;;;;;;;;;;11.40;99.90;;;;;;5064198;28;19913;-75
2022/07/05 03:14:44;;;;;;;;;;;11.30;99.90;;;;;;5072187;28;20419;-74
2022/07/05 03:17:10;;;;;;;;;;;11.30;99.90;;;;;;5072237;28;20010;-75
2022/07/05 03:19:35;;;;;;;;;;;11.30;99.90;;;;;;5071266;28;19909;-75
2022/07/05 03:22:01;;;;;;;;;;;11.20;99.90;;;;;;5071864;28;19908;-75
2022/07/05 03:24:26;;;;;;;;;;;11.20;99.90;;;;;;5071248;28;20333;-75
2022/07/05 03:26:52;;;;;;;;;;;11.30;99.90;;;;;;5072259;28;19913;-75
2022/07/05 03:29:17;;;;;;;;;;;11.30;99.90;;;;;;5072380;28;19912;-75
2022/07/05 03:31:43;;;;;;;;;;;11.30;99.90;;;;;;5071691;28;19919;-75
2022/07/05 03:34:08;;;;;;;;;;;11.20;99.90;;;;;;5071949;28;20286;-74
2022/07/05 03:36:34;;;;;;;;;;;11.10;99.90;;;;;;5068156;28;20109;-75
2022/07/05 03:38:59;;;;;;;;;;;11.10;99.90;;;;;;5072123;28;19917;-75
2022/07/05 03:41:24;;;;;;;;;;;11.20;99.90;;;;;;5070520;28;19958;-75
2022/07/05 03:43:50;;;;;;;;;;;11.20;99.90;;;;;;5071489;28;20320;-75
2022/07/05 03:46:15;;;;;;;;;;;11.20;99.90;;;;;;5071902;28;19966;-75
2022/07/05 03:48:41;;;;;;;;;;;11.20;99.90;;;;;;5071577;28;20393;-75
2022/07/05 03:51:06;;;;;;;;;;;11.20;99.90;;;;;;5071871;28;19909;-75
2022/07/05 03:53:32;;;;;;;;;;;11.30;99.90;;;;;;5069160;28;20447;-75
2022/07/05 03:55:57;;;;;;;;;;;11.50;99.90;;;;;;5073083;28;19908;-75
2022/07/05 03:58:23;;;;;;;;;;;11.60;99.90;;;;;;5071746;28;20289;-75
2022/07/05 04:00:48;;;;;;;;;;;11.70;99.90;;;;;;5071750;28;19954;-75
2022/07/05 04:03:14;;;;;;;;;;;11.80;99.90;;;;;;5070720;28;20018;-75
2022/07/05 04:05:39;;;;;;;;;;;11.90;99.90;;;;;;5071737;28;19912;-75
2022/07/05 04:08:05;;;;;;;;;;;12.10;99.90;;;;;;5071883;28;19909;-75
2022/07/05 04:10:30;;;;;;;;;;;12.20;99.90;;;;;;5071840;28;19909;-75
2022/07/05 04:12:56;;;;;;;;;;;12.30;99.90;;;;;;5071249;28;19909;-75
2022/07/05 04:15:21;;;;;;;;;;;12.40;99.90;;;;;;5064478;28;19909;-75
2022/07/05 04:17:47;;;;;;;;;;;12.50;99.90;;;;;;5071234;28;19912;-75
2022/07/05 04:20:12;;;;;;;;;;;12.60;99.90;;;;;;5071735;28;20293;-75
2022/07/05 04:22:38;;;;;;;;;;;12.60;99.90;;;;;;5067170;28;20030;-76
2022/07/05 04:25:19;;;;;;;;;;;12.60;99.90;;;;;;5072841;28;20285;-75
2022/07/05 04:27:51;;;;;;;;;;;12.70;99.90;;;;;;5066800;28;19908;-75
2022/07/05 04:30:18;;;;;;;;;;;12.80;99.90;;;;;;5071486;28;19948;-76
2022/07/05 04:32:44;;;;;;;;;;;13.00;99.90;;;;;;5070820;28;19909;-76
2022/07/05 04:35:10;;;;;;;;;;;13.10;99.90;;;;;;5071178;28;19913;-76
2022/07/05 04:37:36;;;;;;;;;;;13.10;99.90;;;;;;5071386;28;19915;-75
2022/07/05 04:40:03;;;;;;;;;;;13.00;99.90;;;;;;5071371;28;19908;-75
2022/07/05 04:42:28;;;;;;;;;;;13.00;99.90;;;;;;5070974;28;19967;-76
2022/07/05 04:44:54;;;;;;;;;;;13.10;99.90;;;;;;5070842;28;19955;-75
2022/07/05 04:47:19;;;;;;;;;;;13.10;99.90;;;;;;5071129;28;19913;-75
2022/07/05 04:49:45;;;;;;;;;;;13.10;99.90;;;;;;5068868;28;19908;-76
2022/07/05 04:52:10;;;;;;;;;;;13.10;99.90;;;;;;5073505;28;19909;-76
2022/07/05 04:54:36;;;;;;;;;;;13.10;99.90;;;;;;5077782;28;19909;-75
2022/07/05 04:57:02;;;;;;;;;;;13.30;99.90;;;;;;5075121;28;19962;-75
2022/07/05 04:59:27;;;;;;;;;;;13.50;99.90;;;;;;5075202;28;19915;-76
2022/07/05 05:01:53;;;;;;;;;;;13.60;99.90;;;;;;5074773;28;19909;-76
2022/07/05 05:04:18;;;;;;;;;;;13.60;99.90;;;;;;5074312;28;19956;-76
2022/07/05 05:06:44;;;;;;;;;;;13.60;99.90;;;;;;5075005;28;19916;-76
2022/07/05 05:09:09;;;;;;;;;;;13.60;99.90;;;;;;5073557;28;19917;-76
2022/07/05 05:11:35;;;;;;;;;;;13.70;99.90;;;;;;5074628;28;19975;-76
2022/07/05 05:14:00;;;;;;;;;;;13.80;99.90;;;;;;5074026;28;19912;-76
2022/07/05 05:16:26;;;;;;;;;;;14.00;99.90;;;;;;5074796;28;19909;-76
2022/07/05 05:18:51;;;;;;;;;;;14.10;99.90;;;;;;5074542;28;19965;-76
2022/07/05 05:21:17;;;;;;;;;;;14.20;99.90;;;;;;5074512;28;20109;-76
2022/07/05 05:23:43;;;;;;;;;;;14.70;99.90;;;;;;5069700;28;19920;-76
2022/07/05 05:26:08;;;;;;;;;;;14.80;99.90;;;;;;5076117;28;20423;-75
2022/07/05 05:28:34;;;;;;;;;;;14.80;99.90;;;;;;5082328;28;19909;-76
2022/07/05 05:30:59;;;;;;;;;;;14.90;99.90;;;;;;5075539;28;19912;-75
2022/07/05 05:33:25;;;;;;;;;;;14.90;99.90;;;;;;5073903;28;20003;-75
2022/07/05 05:35:50;;;;;;;;;;;15.00;99.90;;;;;;5074552;28;19962;-76
2022/07/05 05:38:16;;;;;;;;;;;15.30;99.90;;;;;;5074017;28;19951;-76
2022/07/05 05:40:44;;;;;;;;;;;15.40;99.90;;;;;;5074558;28;19908;-76
2022/07/05 05:43:09;;;;;;;;;;;15.60;99.90;;;;;;5073490;28;19909;-76
2022/07/05 05:45:35;;;;;;;;;;;15.70;99.90;;;;;;5074345;28;19908;-76
2022/07/05 05:48:01;;;;;;;;;;;15.70;99.90;;;;;;5074346;28;20281;-76
2022/07/05 05:50:31;;;;;;;;;;;15.80;99.90;;;;;;5074314;28;19909;-76
2022/07/05 05:52:56;;;;;;;;;;;15.90;99.90;;;;;;5068389;28;19951;-76
2022/07/05 05:55:23;;;;;;;;;;;16.30;99.90;;;;;;5073624;28;19979;-76
2022/07/05 05:57:48;;;;;;;;;;;18.00;99.90;;;;;;5073997;28;19908;-76
2022/07/05 06:00:14;;;;;;;;;;;18.90;99.90;;;;;;5073526;28;20289;-76
2022/07/05 06:02:40;;;;;;;;;;;18.40;99.90;;;;;;5072433;28;19996;-76
2022/07/05 06:05:07;;;;;;;;;;;19.50;99.90;;;;;;5073397;28;19912;-76
2022/07/05 06:07:43;;;;;;;;;;;20.00;99.90;;;;;;5073706;28;20008;-76
2022/07/05 06:10:08;;;;;;;;;;;20.40;99.90;;;;;;5068541;28;19989;-76
2022/07/05 06:12:34;;;;;;;;;;;20.70;99.90;;;;;;5073213;28;19974;-76
2022/07/05 06:14:59;;;;;;;;;;;20.30;99.90;;;;;;5073342;28;19919;-76
2022/07/05 06:17:25;;;;;;;;;;;19.30;99.90;;;;;;5072505;28;20304;-76
2022/07/05 06:19:50;;;;;;;;;;;20.00;99.90;;;;;;5073648;28;19908;-75
2022/07/05 06:22:15;;;;;;;;;;;20.70;98.40;;;;;;5072174;28;19912;-75
2022/07/05 06:24:41;;;;;;;;;;;20.60;97.70;;;;;;5073756;28;20284;-75
2022/07/05 06:27:06;;;;;;;;;;;19.50;97.40;;;;;;5073341;28;19954;-75
2022/07/05 06:29:32;;;;;;;;;;;19.00;99.90;;;;;;5073613;28;19931;-75
2022/07/05 06:31:59;;;;;;;;;;;19.90;97.90;;;;;;5073343;28;20289;-75
2022/07/05 06:34:25;;;;;;;;;;;20.80;97.20;;;;;;5071496;28;19909;-75
2022/07/05 06:36:50;;;;;;;;;;;21.60;95.90;;;;;;5072882;28;20277;-75
2022/07/05 06:39:16;;;;;;;;;;;21.20;94.20;;;;;;5071724;28;19969;-75
2022/07/05 06:41:41;;;;;;;;;;;21.30;96.80;;;;;;5072726;28;19987;-75
2022/07/05 06:44:07;;;;;;;;;;;21.90;93.20;;;;;;5071396;28;20293;-76
2022/07/05 06:46:32;;;;;;;;;;;22.50;92.90;;;;;;5073074;28;19909;-75
2022/07/05 06:48:58;;;;;;;;;;;22.60;91.20;;;;;;5073120;28;19970;-76
2022/07/05 06:51:23;;;;;;;;;;;22.60;93.60;;;;;;5072657;28;19955;-75
2022/07/05 06:53:49;;;;;;;;;;;22.40;91.70;;;;;;5076961;28;19912;-76
2022/07/05 06:56:14;;;;;;;;;;;22.70;92.30;;;;;;5072684;28;19908;-76
2022/07/05 06:58:40;;;;;;;;;;;23.20;90.30;;;;;;5072937;28;20002;-75
2022/07/05 07:01:06;;;;;;;;;;;23.10;86.50;;;;;;5072726;28;20343;-75
2022/07/05 07:03:31;;;;;;;;;;;23.50;88.40;;;;;;5071879;28;20008;-76
2022/07/05 07:05:57;;;;;;;;;;;23.50;86.80;;;;;;5072515;28;19915;-76
2022/07/05 07:11:06;;;;;;;;;;;23.90;80.80;;;;;;5072135;28;20025;-76
2022/07/05 07:13:32;;;;;;;;;;;24.00;80.20;;;;;;5071799;28;19912;-76
2022/07/05 07:15:57;;;;;;;;;;;24.10;79.60;;;;;;5072592;28;19954;-76
2022/07/05 07:18:23;;;;;;;;;;;24.20;82.70;;;;;;5072409;28;19908;-76
2022/07/05 07:20:48;;;;;;;;;;;24.10;81.70;;;;;;5072418;28;19915;-76
2022/07/05 07:23:16;;;;;;;;;;;24.20;80.80;;;;;;5066038;28;20529;-76
2022/07/05 07:25:42;;;;;;;;;;;24.10;81.30;;;;;;5076817;28;19954;-75
2022/07/05 07:28:07;;;;;;;;;;;24.40;80.30;;;;;;5068094;28;19927;-75
2022/07/05 07:30:33;;;;;;;;;;;24.50;82.80;;;;;;5072251;28;19919;-75
2022/07/05 07:32:59;;;;;;;;;;;25.10;79.00;;;;;;5070470;28;19908;-76
2022/07/05 07:35:24;;;;;;;;;;;25.20;76.80;;;;;;5071842;28;19992;-76
2022/07/05 07:37:50;;;;;;;;;;;25.60;79.70;;;;;;5072074;28;20385;-76
2022/07/05 07:40:15;;;;;;;;;;;25.30;78.20;;;;;;5071914;28;20388;-76
2022/07/05 07:42:41;;;;;;;;;;;24.70;77.90;;;;;;5071520;28;19909;-76
2022/07/05 07:45:07;;;;;;;;;;;24.10;78.10;;;;;;5069931;28;19913;-76
2022/07/05 07:47:33;;;;;;;;;;;24.20;78.00;;;;;;5071825;28;19962;-76
2022/07/05 07:49:58;;;;;;;;;;;24.50;80.30;;;;;;5071766;28;19991;-76
2022/07/05 07:52:24;;;;;;;;;;;25.60;78.30;;;;;;5070014;28;20002;-76
2022/07/05 07:54:49;;;;;;;;;;;26.00;79.10;;;;;;5071156;28;20007;-76
2022/07/05 07:57:15;;;;;;;;;;;26.30;74.10;;;;;;5071725;28;20353;-76
2022/07/05 07:59:41;;;;;;;;;;;25.40;77.50;;;;;;5065575;28;19914;-76
2022/07/05 08:02:06;;;;;;;;;;;26.10;79.40;;;;;;5071347;28;20007;-76
2022/07/05 08:04:32;;;;;;;;;;;26.10;80.10;;;;;;5070883;28;19917;-76
2022/07/05 08:06:57;;;;;;;;;;;26.80;79.40;;;;;;5071887;28;20064;-76
2022/07/05 08:09:23;;;;;;;;;;;27.00;72.80;;;;;;5071444;28;19973;-76
2022/07/05 08:11:48;;;;;;;;;;;26.40;73.10;;;;;;5071368;28;19916;-76
2022/07/05 08:14:15;;;;;;;;;;;26.50;78.70;;;;;;5071319;28;19908;-76
2022/07/05 08:16:40;;;;;;;;;;;27.40;74.50;;;;;;5070002;28;19954;-76
2022/07/05 08:21:50;;;;;;;;;;;28.20;73.10;;;;;;5071059;28;19970;-76
2022/07/05 08:24:15;;;;;;;;;;;28.10;71.60;;;;;;5069918;28;20373;-76
2022/07/05 08:26:41;;;;;;;;;;;28.00;73.00;;;;;;5071289;28;19912;-77
2022/07/05 08:29:08;;;;;;;;;;;28.90;67.70;;;;;;5071398;28;19908;-77
2022/07/05 08:31:37;;;;;;;;;;;29.10;72.90;;;;;;5071831;28;19971;-77
2022/07/05 08:34:03;;;;;;;;;;;28.90;72.20;;;;;;5071085;28;19916;-77
2022/07/05 08:36:29;;;;;;;;;;;29.10;71.30;;;;;;5071231;28;19912;-77
2022/07/05 08:38:54;;;;;;;;;;;29.70;71.10;;;;;;5071073;28;20288;-77
2022/07/05 08:41:20;;;;;;;;;;;28.40;62.90;;;;;;5070787;28;20003;-77
2022/07/05 08:43:47;;;;;;;;;;;27.50;72.10;;;;;;5070227;28;19913;-77
2022/07/05 08:46:14;;;;;;;;;;;27.60;68.10;;;;;;5071360;28;19908;-77
2022/07/05 08:48:44;;;;;;;;;;;28.20;69.20;;;;;;5071501;28;20287;-77
2022/07/05 08:51:11;;;;;;;;;;;28.50;65.90;;;;;;5071360;28;19909;-77
2022/07/05 08:53:37;;;;;;;;;;;29.30;68.70;;;;;;5067889;28;19932;-77
2022/07/05 08:56:03;;;;;;;;;;;29.40;68.60;;;;;;5069658;28;20389;-77
2022/07/05 08:58:28;;;;;;;;;;;29.10;61.00;;;;;;5071028;28;19989;-77
2022/07/05 09:00:53;;;;;;;;;;;29.80;65.30;;;;;;5071117;28;19909;-77
2022/07/05 09:03:22;;;;;;;;;;;30.50;63.20;;;;;;5070241;28;19917;-77
2022/07/05 09:05:48;;;;;;;;;;;31.10;63.90;;;;;;5071119;28;19999;-77
2022/07/05 09:08:14;;;;;;;;;;;30.50;60.90;;;;;;5071098;28;19909;-77
2022/07/05 09:10:42;;;;;;;;;;;30.70;63.60;;;;;;5071397;28;19913;-77
2022/07/05 09:13:07;;;;;;;;;;;30.80;57.90;;;;;;5070297;28;19912;-77
2022/07/05 09:15:33;;;;;;;;;;;29.50;64.20;;;;;;5070959;28;20003;-77
2022/07/05 09:17:58;;;;;;;;;;;29.20;59.30;;;;;;5070943;28;19908;-77
2022/07/05 09:20:26;;;;;;;;;;;28.90;58.80;;;;;;5071110;28;20320;-77
2022/07/05 09:22:52;;;;;;;;;;;29.20;62.30;;;;;;5070544;28;19961;-76
2022/07/05 09:25:23;;;;;;;;;;;29.30;59.20;;;;;;5069646;28;20357;-77
2022/07/05 09:27:49;;;;;;;;;;;28.50;61.60;;;;;;5070648;28;19909;-76
2022/07/05 09:30:25;;;;;;;;;;;28.20;63.20;;;;;;5071034;28;19908;-76
2022/07/05 09:33:07;;;;;;;;;;;28.80;61.00;;;;;;5069154;28;19967;-77
2022/07/05 09:35:34;;;;;;;;;;;29.50;60.30;;;;;;5053639;28;19909;-77
2022/07/05 09:37:59;;;;;;;;;;;29.80;66.50;;;;;;5074230;28;19913;-76
2022/07/05 09:40:25;;;;;;;;;;;28.90;57.70;;;;;;5072844;28;19916;-76
2022/07/05 09:42:50;;;;;;;;;;;29.50;59.50;;;;;;5073900;28;19958;-77
2022/07/05 09:45:23;;;;;;;;;;;28.60;59.50;;;;;;5073627;28;19912;-77
2022/07/05 09:47:49;;;;;;;;;;;28.70;62.50;;;;;;5053611;28;19951;-77
2022/07/05 09:50:14;;;;;;;;;;;29.30;60.70;;;;;;5072862;28;19951;-77
2022/07/05 09:52:40;;;;;;;;;;;30.50;59.80;;;;;;5073794;28;20294;-77
2022/07/05 09:55:06;;;;;;;;;;;31.50;58.30;;;;;;5071539;28;19963;-77
2022/07/05 09:57:32;;;;;;;;;;;29.40;54.90;;;;;;5075369;28;20319;-76
2022/07/05 10:00:17;;;;;;;;;;;27.10;57.60;;;;;;5074105;28;19951;-76
2022/07/05 10:02:44;;;;;;;;;;;28.60;63.30;;;;;;5069327;28;19920;-77
2022/07/05 10:05:16;;;;;;;;;;;29.90;59.20;;;;;;5071735;28;20417;-77
2022/07/05 10:07:46;;;;;;;;;;;29.70;57.00;;;;;;5073829;28;19909;-77
2022/07/05 10:10:12;;;;;;;;;;;29.70;60.20;;;;;;5073602;28;19909;-76
2022/07/05 10:12:39;;;;;;;;;;;29.40;59.30;;;;;;5072229;28;20042;-76
2022/07/05 10:15:05;;;;;;;;;;;29.90;56.10;;;;;;5073429;28;20386;-76
2022/07/05 10:17:35;;;;;;;;;;;27.90;54.40;;;;;;5073540;28;19913;-76
2022/07/05 10:20:01;;;;;;;;;;;27.60;58.80;;;;;;5073757;28;19909;-76
2022/07/05 10:22:27;;;;;;;;;;;29.60;56.40;;;;;;5073452;28;19912;-77
2022/07/05 10:24:54;;;;;;;;;;;29.40;50.70;;;;;;5072173;28;19917;-77
2022/07/05 10:27:22;;;;;;;;;;;29.80;57.10;;;;;;5072713;28;20236;-76
2022/07/05 10:29:48;;;;;;;;;;;29.20;50.80;;;;;;5073528;28;19915;-76
2022/07/05 10:32:15;;;;;;;;;;;29.40;55.10;;;;;;5073135;28;19909;-76
2022/07/05 10:34:41;;;;;;;;;;;29.80;59.10;;;;;;5073021;28;20385;-76
2022/07/05 10:37:06;;;;;;;;;;;29.00;49.20;;;;;;5073326;28;19908;-77
2022/07/05 10:39:34;;;;;;;;;;;29.40;54.70;;;;;;5073182;28;19954;-76
2022/07/05 10:42:01;;;;;;;;;;;29.70;58.30;;;;;;5073106;28;20377;-77
2022/07/05 10:44:34;;;;;;;;;;;29.10;51.00;;;;;;5072598;28;20356;-77
2022/07/05 10:47:06;;;;;;;;;;;30.30;60.00;;;;;;5073637;28;19909;-77
2022/07/05 10:49:32;;;;;;;;;;;30.00;52.90;;;;;;5073467;28;20258;-76
2022/07/05 10:51:58;;;;;;;;;;;30.70;59.50;;;;;;5073047;28;19958;-77
2022/07/05 10:54:23;;;;;;;;;;;30.40;56.00;;;;;;5072435;28;19915;-76
2022/07/05 10:57:07;;;;;;;;;;;30.40;56.90;;;;;;5072714;28;19908;-77
2022/07/05 10:59:53;;;;;;;;;;;30.70;53.00;;;;;;5073028;28;19944;-76
2022/07/05 11:02:19;;;;;;;;;;;30.80;57.10;;;;;;5066575;28;19916;-76
2022/07/05 11:04:44;;;;;;;;;;;30.90;54.50;;;;;;5072350;28;20003;-76
2022/07/05 11:07:10;;;;;;;;;;;29.30;53.30;;;;;;5072854;28;19951;-77
2022/07/05 11:09:36;;;;;;;;;;;28.10;58.60;;;;;;5072420;28;19908;-76
2022/07/05 11:12:03;;;;;;;;;;;27.90;55.80;;;;;;5072103;28;19908;-76
2022/07/05 11:14:32;;;;;;;;;;;28.20;59.70;;;;;;5072154;28;19951;-76
2022/07/05 11:17:22;;;;;;;;;;;29.80;56.40;;;;;;5066023;28;19953;-76
2022/07/05 11:19:57;;;;;;;;;;;29.40;58.00;;;;;;5068590;28;20133;-76
2022/07/05 11:22:22;;;;;;;;;;;29.70;56.00;;;;;;5070872;28;20006;-77
2022/07/05 11:24:48;;;;;;;;;;;30.70;55.10;;;;;;5070742;28;20027;-77
2022/07/05 11:27:13;;;;;;;;;;;30.40;55.80;;;;;;5072215;28;19909;-77
2022/07/05 11:29:39;;;;;;;;;;;31.10;53.80;;;;;;5072435;28;19908;-77
2022/07/05 11:32:06;;;;;;;;;;;31.30;56.90;;;;;;5072052;28;20392;-77
2022/07/05 11:34:37;;;;;;;;;;;29.50;54.20;;;;;;5070466;28;19995;-77
2022/07/05 11:37:18;;;;;;;;;;;28.10;57.10;;;;;;5072184;28;19908;-76
2022/07/05 11:40:04;;;;;;;;;;;27.90;58.60;;;;;;5070494;28;20343;-76
2022/07/05 11:42:29;;;;;;;;;;;27.90;60.90;;;;;;5066079;28;19912;-76
2022/07/05 11:44:55;;;;;;;;;;;29.10;58.20;;;;;;5071373;28;20259;-77
2022/07/05 11:47:21;;;;;;;;;;;30.10;55.10;;;;;;5071874;28;19958;-77
2022/07/05 11:49:52;;;;;;;;;;;29.90;58.20;;;;;;5071881;28;20022;-77
2022/07/05 11:52:24;;;;;;;;;;;30.80;54.20;;;;;;5071636;28;19987;-77
2022/07/05 11:54:49;;;;;;;;;;;30.40;54.30;;;;;;5071525;28;19995;-76
2022/07/05 11:57:15;;;;;;;;;;;29.10;53.70;;;;;;5071466;28;20329;-76
2022/07/05 11:59:40;;;;;;;;;;;28.60;58.50;;;;;;5071678;28;20006;-76
2022/07/05 12:02:06;;;;;;;;;;;28.60;56.00;;;;;;5071506;28;19913;-77
2022/07/05 12:04:31;;;;;;;;;;;28.80;55.20;;;;;;5071276;28;19912;-76
2022/07/05 12:06:57;;;;;;;;;;;28.90;54.50;;;;;;5071689;28;19977;-77
2022/07/05 12:09:24;;;;;;;;;;;29.70;58.30;;;;;;5071889;28;20295;-77
2022/07/05 12:14:36;;;;;;;;;;;29.30;53.00;;;;;;5071557;28;19915;-76
2022/07/05 12:17:14;;;;;;;;;;;29.20;58.30;;;;;;5071410;28;19908;-77
2022/07/05 12:19:40;;;;;;;;;;;29.20;56.90;;;;;;5071613;28;19951;-77
2022/07/05 12:22:05;;;;;;;;;;;30.20;57.50;;;;;;5071124;28;19952;-76
2022/07/05 12:24:31;;;;;;;;;;;29.70;55.00;;;;;;5073524;28;19924;-76
2022/07/05 12:26:57;;;;;;;;;;;29.20;59.40;;;;;;5071319;28;20270;-76
2022/07/05 12:29:22;;;;;;;;;;;27.60;57.50;;;;;;5071604;28;19974;-76
2022/07/05 12:32:08;;;;;;;;;;;28.20;57.30;;;;;;5071125;28;19908;-76
2022/07/05 12:34:34;;;;;;;;;;;30.20;58.90;;;;;;5070736;28;20288;-76
2022/07/05 12:36:59;;;;;;;;;;;32.90;53.20;;;;;;5071409;28;19963;-77
2022/07/05 12:39:25;;;;;;;;;;;32.70;51.00;;;;;;5071207;28;20026;-76
2022/07/05 12:41:51;;;;;;;;;;;31.00;49.50;;;;;;5071173;28;20377;-76
2022/07/05 12:44:19;;;;;;;;;;;28.20;56.50;;;;;;5070517;28;19930;-76
2022/07/05 12:46:46;;;;;;;;;;;31.70;52.20;;;;;;5071145;28;19916;-76
2022/07/05 12:49:11;;;;;;;;;;;33.60;46.60;;;;;;5071431;28;20172;-76
2022/07/05 12:51:38;;;;;;;;;;;35.10;48.60;;;;;;5070544;28;19913;-76
2022/07/05 12:59:35;;;;;;;;;;;34.40;44.90;;;;;;5067145;28;19915;-77
2022/07/05 13:02:00;;;;;;;;;;;35.90;48.00;;;;;;5070759;28;20393;-76
2022/07/05 13:04:26;;;;;;;;;;;35.20;44.80;;;;;;5070581;28;19912;-77
2022/07/05 13:06:54;;;;;;;;;;;36.00;44.60;;;;;;5071126;28;20301;-76
2022/07/05 13:09:32;;;;;;;;;;;35.80;42.80;;;;;;5072561;28;19917;-77
2022/07/05 13:12:10;;;;;;;;;;;37.20;44.40;;;;;;5074766;28;20377;-76
2022/07/05 13:14:36;;;;;;;;;;;31.10;47.30;;;;;;5074451;28;19909;-76
2022/07/05 13:17:02;;;;;;;;;;;27.90;56.00;;;;;;5074755;28;19912;-75
2022/07/05 13:19:27;;;;;;;;;;;32.10;48.60;;;;;;5074331;28;19908;-74
2022/07/05 13:21:53;;;;;;;;;;;29.70;55.80;;;;;;5074471;28;19909;-75
2022/07/05 13:24:19;;;;;;;;;;;33.10;53.80;;;;;;5073682;28;19967;-75
2022/07/05 13:26:45;;;;;;;;;;;35.60;42.50;;;;;;5074529;28;19946;-76
2022/07/05 13:29:10;;;;;;;;;;;36.40;42.80;;;;;;5074517;28;19912;-75
2022/07/05 13:31:36;;;;;;;;;;;36.70;43.80;;;;;;5074435;28;19920;-75
2022/07/05 13:34:01;;;;;;;;;;;36.70;43.40;;;;;;5074218;28;19996;-75
2022/07/05 13:36:27;;;;;;;;;;;36.90;44.40;;;;;;5073468;28;19958;-76
2022/07/05 13:38:53;;;;;;;;;;;37.30;44.00;;;;;;5074490;28;19919;-77
2022/07/05 13:41:18;;;;;;;;;;;36.20;43.70;;;;;;5073910;28;19926;-76
2022/07/05 13:43:44;;;;;;;;;;;35.10;41.00;;;;;;5074337;28;19916;-75
2022/07/05 13:46:10;;;;;;;;;;;30.90;48.60;;;;;;5074492;28;19932;-75
2022/07/05 13:48:36;;;;;;;;;;;29.90;53.90;;;;;;5074285;28;19944;-76
2022/07/05 13:51:02;;;;;;;;;;;33.00;45.90;;;;;;5074287;28;19948;-75
2022/07/05 13:53:27;;;;;;;;;;;32.30;50.80;;;;;;5071812;28;19908;-76
2022/07/05 13:55:53;;;;;;;;;;;32.50;46.00;;;;;;5072958;28;19909;-76
2022/07/05 13:58:18;;;;;;;;;;;34.40;48.80;;;;;;5073919;28;19908;-75
2022/07/05 14:00:44;;;;;;;;;;;35.30;42.80;;;;;;5074080;28;19908;-76
2022/07/05 14:03:10;;;;;;;;;;;36.30;49.80;;;;;;5073216;28;19912;-78
2022/07/05 14:05:36;;;;;;;;;;;35.20;48.90;;;;;;5073988;28;19916;-78
2022/07/05 14:08:01;;;;;;;;;;;33.40;47.10;;;;;;5073927;28;19915;-77
2022/07/05 14:10:27;;;;;;;;;;;32.90;47.30;;;;;;5073806;28;19995;-76
2022/07/05 14:12:52;;;;;;;;;;;33.80;46.80;;;;;;5073547;28;19992;-76
2022/07/05 14:15:18;;;;;;;;;;;34.20;46.40;;;;;;5073475;28;20268;-76
2022/07/05 14:17:43;;;;;;;;;;;32.60;47.20;;;;;;5073704;28;19915;-78
2022/07/05 14:20:09;;;;;;;;;;;32.40;47.80;;;;;;5072977;28;19916;-76
2022/07/05 14:22:35;;;;;;;;;;;33.40;48.70;;;;;;5074662;28;19909;-75
2022/07/05 14:25:00;;;;;;;;;;;32.30;47.50;;;;;;5073892;28;20380;-76